sensor_id;sensor_type;location;lat;lon;timestamp;P1;durP1;ratioP1;P2;durP2;ratioP2
29816;SDS011;16805;52.956;5.906;2024-02-26T00:02:11;13.80;;;8.05;;
29816;SDS011;16805;52.956;5.906;2024-02-26T00:04:36;13.15;;;8.57;;
29816;SDS011;16805;52.956;5.906;2024-02-26T00:07:02;14.20;;;8.73;;
29816;SDS011;16805;52.956;5.906;2024-02-26T00:09:28;10.77;;;7.15;;
29816;SDS011;16805;52.956;5.906;2024-02-26T00:11:53;11.77;;;8.52;;
29816;SDS011;16805;52.956;5.906;2024-02-26T00:14:23;10.93;;;8.07;;
29816;SDS011;16805;52.956;5.906;2024-02-26T00:16:48;18.33;;;9.93;;
29816;SDS011;16805;52.956;5.906;2024-02-26T00:19:14;11.63;;;7.45;;
29816;SDS011;16805;52.956;5.906;2024-02-26T00:21:42;14.45;;;8.68;;
29816;SDS011;16805;52.956;5.906;2024-02-26T00:24:08;11.98;;;7.78;;
29816;SDS011;16805;52.956;5.906;2024-02-26T00:26:37;13.07;;;7.10;;
29816;SDS011;16805;52.956;5.906;2024-02-26T00:29:02;12.88;;;8.05;;
29816;SDS011;16805;52.956;5.906;2024-02-26T00:31:28;10.50;;;6.28;;
29816;SDS011;16805;52.956;5.906;2024-02-26T00:33:53;10.02;;;6.32;;
29816;SDS011;16805;52.956;5.906;2024-02-26T00:36:22;10.93;;;6.03;;
29816;SDS011;16805;52.956;5.906;2024-02-26T00:38:51;10.52;;;7.60;;
29816;SDS011;16805;52.956;5.906;2024-02-26T00:41:17;8.77;;;6.05;;
29816;SDS011;16805;52.956;5.906;2024-02-26T00:43:43;11.35;;;8.05;;
29816;SDS011;16805;52.956;5.906;2024-02-26T00:46:12;9.77;;;6.15;;
29816;SDS011;16805;52.956;5.906;2024-02-26T00:48:40;11.98;;;6.10;;
29816;SDS011;16805;52.956;5.906;2024-02-26T00:51:06;11.05;;;6.68;;
29816;SDS011;16805;52.956;5.906;2024-02-26T00:53:32;14.02;;;8.13;;
29816;SDS011;16805;52.956;5.906;2024-02-26T00:55:58;11.00;;;7.50;;
29816;SDS011;16805;52.956;5.906;2024-02-26T00:58:27;10.50;;;6.45;;
29816;SDS011;16805;52.956;5.906;2024-02-26T01:00:52;9.85;;;5.93;;
29816;SDS011;16805;52.956;5.906;2024-02-26T01:03:18;7.20;;;5.13;;
29816;SDS011;16805;52.956;5.906;2024-02-26T01:05:44;11.10;;;6.97;;
29816;SDS011;16805;52.956;5.906;2024-02-26T01:08:13;6.97;;;4.32;;
29816;SDS011;16805;52.956;5.906;2024-02-26T01:10:41;12.07;;;8.00;;
29816;SDS011;16805;52.956;5.906;2024-02-26T01:13:07;13.30;;;8.18;;
29816;SDS011;16805;52.956;5.906;2024-02-26T01:15:33;12.60;;;7.03;;
29816;SDS011;16805;52.956;5.906;2024-02-26T01:18:01;8.98;;;5.28;;
29816;SDS011;16805;52.956;5.906;2024-02-26T01:20:26;11.43;;;8.05;;
29816;SDS011;16805;52.956;5.906;2024-02-26T01:22:55;10.90;;;6.90;;
29816;SDS011;16805;52.956;5.906;2024-02-26T01:25:21;10.65;;;6.85;;
29816;SDS011;16805;52.956;5.906;2024-02-26T01:27:46;9.15;;;5.80;;
29816;SDS011;16805;52.956;5.906;2024-02-26T01:30:15;11.20;;;6.82;;
29816;SDS011;16805;52.956;5.906;2024-02-26T01:32:41;15.32;;;9.75;;
29816;SDS011;16805;52.956;5.906;2024-02-26T01:35:07;10.43;;;6.70;;
29816;SDS011;16805;52.956;5.906;2024-02-26T01:37:43;16.55;;;10.27;;
29816;SDS011;16805;52.956;5.906;2024-02-26T01:40:08;11.75;;;7.72;;
29816;SDS011;16805;52.956;5.906;2024-02-26T01:42:34;17.20;;;9.57;;
29816;SDS011;16805;52.956;5.906;2024-02-26T01:45:03;16.20;;;8.25;;
29816;SDS011;16805;52.956;5.906;2024-02-26T01:47:33;13.90;;;9.07;;
29816;SDS011;16805;52.956;5.906;2024-02-26T01:49:59;19.50;;;10.20;;
29816;SDS011;16805;52.956;5.906;2024-02-26T01:52:24;10.93;;;6.72;;
29816;SDS011;16805;52.956;5.906;2024-02-26T01:54:50;14.98;;;8.82;;
29816;SDS011;16805;52.956;5.906;2024-02-26T01:57:19;13.90;;;8.63;;
29816;SDS011;16805;52.956;5.906;2024-02-26T01:59:47;15.43;;;8.40;;
29816;SDS011;16805;52.956;5.906;2024-02-26T02:02:15;15.15;;;9.15;;
29816;SDS011;16805;52.956;5.906;2024-02-26T02:04:43;13.52;;;8.68;;
29816;SDS011;16805;52.956;5.906;2024-02-26T02:07:12;18.92;;;10.32;;
29816;SDS011;16805;52.956;5.906;2024-02-26T02:09:38;14.43;;;9.80;;
29816;SDS011;16805;52.956;5.906;2024-02-26T02:12:04;12.10;;;8.40;;
29816;SDS011;16805;52.956;5.906;2024-02-26T02:14:31;14.02;;;9.52;;
29816;SDS011;16805;52.956;5.906;2024-02-26T02:16:56;14.73;;;7.43;;
29816;SDS011;16805;52.956;5.906;2024-02-26T02:19:25;17.05;;;10.25;;
29816;SDS011;16805;52.956;5.906;2024-02-26T02:21:51;14.55;;;9.05;;
29816;SDS011;16805;52.956;5.906;2024-02-26T02:24:17;11.35;;;9.07;;
29816;SDS011;16805;52.956;5.906;2024-02-26T02:26:43;15.63;;;9.55;;
29816;SDS011;16805;52.956;5.906;2024-02-26T02:29:09;22.02;;;11.05;;
29816;SDS011;16805;52.956;5.906;2024-02-26T02:31:35;8.93;;;6.85;;
29816;SDS011;16805;52.956;5.906;2024-02-26T02:34:06;13.18;;;7.80;;
29816;SDS011;16805;52.956;5.906;2024-02-26T02:36:33;9.30;;;7.15;;
29816;SDS011;16805;52.956;5.906;2024-02-26T02:38:59;12.48;;;8.50;;
29816;SDS011;16805;52.956;5.906;2024-02-26T02:41:24;10.05;;;7.22;;
29816;SDS011;16805;52.956;5.906;2024-02-26T02:43:58;13.43;;;9.65;;
29816;SDS011;16805;52.956;5.906;2024-02-26T02:46:29;14.85;;;7.32;;
29816;SDS011;16805;52.956;5.906;2024-02-26T02:49:00;11.23;;;8.50;;
29816;SDS011;16805;52.956;5.906;2024-02-26T02:51:29;15.30;;;10.98;;
29816;SDS011;16805;52.956;5.906;2024-02-26T02:53:55;13.93;;;8.68;;
29816;SDS011;16805;52.956;5.906;2024-02-26T02:56:26;12.45;;;8.15;;
29816;SDS011;16805;52.956;5.906;2024-02-26T02:58:54;14.20;;;8.02;;
29816;SDS011;16805;52.956;5.906;2024-02-26T03:01:22;9.23;;;6.95;;
29816;SDS011;16805;52.956;5.906;2024-02-26T03:03:54;10.68;;;7.95;;
29816;SDS011;16805;52.956;5.906;2024-02-26T03:06:22;9.75;;;7.38;;
29816;SDS011;16805;52.956;5.906;2024-02-26T03:08:54;12.55;;;7.35;;
29816;SDS011;16805;52.956;5.906;2024-02-26T03:11:20;7.75;;;5.13;;
29816;SDS011;16805;52.956;5.906;2024-02-26T03:13:48;11.50;;;6.53;;
29816;SDS011;16805;52.956;5.906;2024-02-26T03:16:17;10.05;;;8.18;;
29816;SDS011;16805;52.956;5.906;2024-02-26T03:18:51;10.45;;;7.13;;
29816;SDS011;16805;52.956;5.906;2024-02-26T03:21:22;8.48;;;5.00;;
29816;SDS011;16805;52.956;5.906;2024-02-26T03:23:59;8.98;;;6.28;;
29816;SDS011;16805;52.956;5.906;2024-02-26T03:26:28;9.65;;;6.28;;
29816;SDS011;16805;52.956;5.906;2024-02-26T03:28:59;11.18;;;7.32;;
29816;SDS011;16805;52.956;5.906;2024-02-26T03:31:27;7.20;;;5.07;;
29816;SDS011;16805;52.956;5.906;2024-02-26T03:33:56;8.13;;;5.43;;
29816;SDS011;16805;52.956;5.906;2024-02-26T03:36:22;6.68;;;3.45;;
29816;SDS011;16805;52.956;5.906;2024-02-26T03:38:51;6.18;;;4.13;;
29816;SDS011;16805;52.956;5.906;2024-02-26T03:41:19;6.28;;;4.32;;
29816;SDS011;16805;52.956;5.906;2024-02-26T03:43:49;8.98;;;6.63;;
29816;SDS011;16805;52.956;5.906;2024-02-26T03:46:23;5.25;;;4.05;;
29816;SDS011;16805;52.956;5.906;2024-02-26T03:48:55;7.57;;;4.63;;
29816;SDS011;16805;52.956;5.906;2024-02-26T03:51:24;6.80;;;5.07;;
29816;SDS011;16805;52.956;5.906;2024-02-26T03:53:53;8.90;;;6.38;;
29816;SDS011;16805;52.956;5.906;2024-02-26T03:56:21;6.07;;;4.05;;
29816;SDS011;16805;52.956;5.906;2024-02-26T03:58:58;6.32;;;4.10;;
29816;SDS011;16805;52.956;5.906;2024-02-26T04:01:27;4.32;;;3.78;;
29816;SDS011;16805;52.956;5.906;2024-02-26T04:03:54;5.40;;;4.15;;
29816;SDS011;16805;52.956;5.906;2024-02-26T04:06:25;6.45;;;3.30;;
29816;SDS011;16805;52.956;5.906;2024-02-26T04:08:57;4.80;;;3.75;;
29816;SDS011;16805;52.956;5.906;2024-02-26T04:11:27;5.95;;;4.47;;
29816;SDS011;16805;52.956;5.906;2024-02-26T04:13:55;8.55;;;3.97;;
29816;SDS011;16805;52.956;5.906;2024-02-26T04:16:27;5.43;;;3.78;;
29816;SDS011;16805;52.956;5.906;2024-02-26T04:18:53;5.93;;;4.55;;
29816;SDS011;16805;52.956;5.906;2024-02-26T04:21:19;4.85;;;3.95;;
29816;SDS011;16805;52.956;5.906;2024-02-26T04:23:51;8.98;;;4.75;;
29816;SDS011;16805;52.956;5.906;2024-02-26T04:26:32;6.80;;;5.18;;
29816;SDS011;16805;52.956;5.906;2024-02-26T04:29:03;3.97;;;3.10;;
29816;SDS011;16805;52.956;5.906;2024-02-26T04:31:32;4.25;;;2.80;;
29816;SDS011;16805;52.956;5.906;2024-02-26T04:33:58;5.07;;;4.18;;
29816;SDS011;16805;52.956;5.906;2024-02-26T04:36:26;5.43;;;3.70;;
29816;SDS011;16805;52.956;5.906;2024-02-26T04:38:52;3.97;;;2.80;;
29816;SDS011;16805;52.956;5.906;2024-02-26T04:41:23;2.95;;;2.58;;
29816;SDS011;16805;52.956;5.906;2024-02-26T04:43:54;6.13;;;3.38;;
29816;SDS011;16805;52.956;5.906;2024-02-26T04:46:26;4.97;;;2.58;;
29816;SDS011;16805;52.956;5.906;2024-02-26T04:48:57;5.43;;;2.90;;
29816;SDS011;16805;52.956;5.906;2024-02-26T04:51:26;4.25;;;3.22;;
29816;SDS011;16805;52.956;5.906;2024-02-26T04:53:54;4.88;;;3.42;;
29816;SDS011;16805;52.956;5.906;2024-02-26T04:56:21;2.50;;;2.20;;
29816;SDS011;16805;52.956;5.906;2024-02-26T04:58:54;4.28;;;2.95;;
29816;SDS011;16805;52.956;5.906;2024-02-26T05:01:23;8.35;;;3.70;;
29816;SDS011;16805;52.956;5.906;2024-02-26T05:03:56;6.03;;;4.28;;
29816;SDS011;16805;52.956;5.906;2024-02-26T05:06:27;3.85;;;2.15;;
29816;SDS011;16805;52.956;5.906;2024-02-26T05:08:55;4.18;;;2.75;;
29816;SDS011;16805;52.956;5.906;2024-02-26T05:11:21;11.38;;;2.50;;
29816;SDS011;16805;52.956;5.906;2024-02-26T05:13:55;3.38;;;1.88;;
29816;SDS011;16805;52.956;5.906;2024-02-26T05:16:26;3.53;;;2.30;;
29816;SDS011;16805;52.956;5.906;2024-02-26T05:18:55;2.15;;;1.50;;
29816;SDS011;16805;52.956;5.906;2024-02-26T05:21:31;3.75;;;2.00;;
29816;SDS011;16805;52.956;5.906;2024-02-26T05:23:57;4.15;;;2.65;;
29816;SDS011;16805;52.956;5.906;2024-02-26T05:26:31;3.25;;;1.73;;
29816;SDS011;16805;52.956;5.906;2024-02-26T05:29:00;3.05;;;2.75;;
29816;SDS011;16805;52.956;5.906;2024-02-26T05:31:28;2.50;;;1.73;;
29816;SDS011;16805;52.956;5.906;2024-02-26T05:33:54;3.17;;;2.55;;
29816;SDS011;16805;52.956;5.906;2024-02-26T05:36:23;8.02;;;3.75;;
29816;SDS011;16805;52.956;5.906;2024-02-26T05:38:53;3.03;;;2.35;;
29816;SDS011;16805;52.956;5.906;2024-02-26T05:41:22;4.70;;;2.08;;
29816;SDS011;16805;52.956;5.906;2024-02-26T05:43:51;3.15;;;2.00;;
29816;SDS011;16805;52.956;5.906;2024-02-26T05:46:25;5.97;;;2.28;;
29816;SDS011;16805;52.956;5.906;2024-02-26T05:48:57;4.53;;;2.75;;
29816;SDS011;16805;52.956;5.906;2024-02-26T05:51:26;4.70;;;3.15;;
29816;SDS011;16805;52.956;5.906;2024-02-26T05:53:52;6.57;;;3.10;;
29816;SDS011;16805;52.956;5.906;2024-02-26T05:56:23;2.47;;;1.90;;
29816;SDS011;16805;52.956;5.906;2024-02-26T05:58:51;3.80;;;1.63;;
29816;SDS011;16805;52.956;5.906;2024-02-26T06:01:19;6.97;;;2.92;;
29816;SDS011;16805;52.956;5.906;2024-02-26T06:03:55;2.90;;;1.50;;
29816;SDS011;16805;52.956;5.906;2024-02-26T06:06:23;4.37;;;2.67;;
29816;SDS011;16805;52.956;5.906;2024-02-26T06:08:55;4.90;;;2.75;;
29816;SDS011;16805;52.956;5.906;2024-02-26T06:11:20;2.78;;;2.20;;
29816;SDS011;16805;52.956;5.906;2024-02-26T06:13:50;3.53;;;2.67;;
29816;SDS011;16805;52.956;5.906;2024-02-26T06:16:20;3.38;;;2.35;;
29816;SDS011;16805;52.956;5.906;2024-02-26T06:18:51;3.17;;;2.60;;
29816;SDS011;16805;52.956;5.906;2024-02-26T06:21:22;4.18;;;2.63;;
29816;SDS011;16805;52.956;5.906;2024-02-26T06:24:00;4.30;;;2.95;;
29816;SDS011;16805;52.956;5.906;2024-02-26T06:26:45;6.43;;;2.05;;
29816;SDS011;16805;52.956;5.906;2024-02-26T06:29:25;3.05;;;2.08;;
29816;SDS011;16805;52.956;5.906;2024-02-26T06:35:23;3.10;;;1.80;;
29816;SDS011;16805;52.956;5.906;2024-02-26T06:38:03;3.22;;;2.60;;
29816;SDS011;16805;52.956;5.906;2024-02-26T07:01:44;3.17;;;2.17;;
29816;SDS011;16805;52.956;5.906;2024-02-26T07:04:28;2.60;;;1.83;;
29816;SDS011;16805;52.956;5.906;2024-02-26T07:07:03;3.50;;;2.30;;
29816;SDS011;16805;52.956;5.906;2024-02-26T07:12:20;2.97;;;2.40;;
29816;SDS011;16805;52.956;5.906;2024-02-26T07:17:26;4.60;;;1.35;;
29816;SDS011;16805;52.956;5.906;2024-02-26T07:22:58;2.08;;;1.55;;
29816;SDS011;16805;52.956;5.906;2024-02-26T07:25:29;2.35;;;1.92;;
29816;SDS011;16805;52.956;5.906;2024-02-26T07:28:30;2.72;;;1.05;;
29816;SDS011;16805;52.956;5.906;2024-02-26T07:31:31;1.52;;;1.42;;
29816;SDS011;16805;52.956;5.906;2024-02-26T07:44:50;1.38;;;1.15;;
29816;SDS011;16805;52.956;5.906;2024-02-26T07:54:48;2.05;;;0.90;;
29816;SDS011;16805;52.956;5.906;2024-02-26T08:01:25;1.08;;;0.90;;
29816;SDS011;16805;52.956;5.906;2024-02-26T08:11:14;1.10;;;0.70;;
29816;SDS011;16805;52.956;5.906;2024-02-26T08:14:05;2.80;;;1.77;;
29816;SDS011;16805;52.956;5.906;2024-02-26T08:17:38;2.75;;;1.55;;
29816;SDS011;16805;52.956;5.906;2024-02-26T08:24:35;2.72;;;1.67;;
29816;SDS011;16805;52.956;5.906;2024-02-26T08:30:26;1.88;;;1.25;;
29816;SDS011;16805;52.956;5.906;2024-02-26T08:50:32;4.53;;;1.55;;
29816;SDS011;16805;52.956;5.906;2024-02-26T08:57:04;2.20;;;1.23;;
29816;SDS011;16805;52.956;5.906;2024-02-26T09:00:31;1.55;;;0.98;;
29816;SDS011;16805;52.956;5.906;2024-02-26T09:03:51;1.33;;;1.17;;
29816;SDS011;16805;52.956;5.906;2024-02-26T09:15:08;1.75;;;1.30;;
29816;SDS011;16805;52.956;5.906;2024-02-26T09:17:48;2.80;;;1.77;;
29816;SDS011;16805;52.956;5.906;2024-02-26T09:21:04;3.20;;;0.82;;
29816;SDS011;16805;52.956;5.906;2024-02-26T09:23:59;10.82;;;2.20;;
29816;SDS011;16805;52.956;5.906;2024-02-26T09:29:20;0.80;;;0.77;;
29816;SDS011;16805;52.956;5.906;2024-02-26T09:32:08;1.73;;;1.08;;
29816;SDS011;16805;52.956;5.906;2024-02-26T09:34:46;2.25;;;1.50;;
29816;SDS011;16805;52.956;5.906;2024-02-26T09:37:21;1.10;;;0.68;;
29816;SDS011;16805;52.956;5.906;2024-02-26T09:40:04;1.30;;;1.20;;
29816;SDS011;16805;52.956;5.906;2024-02-26T09:43:04;3.85;;;0.95;;
29816;SDS011;16805;52.956;5.906;2024-02-26T09:48:22;1.30;;;0.93;;
29816;SDS011;16805;52.956;5.906;2024-02-26T09:51:14;1.55;;;0.68;;
29816;SDS011;16805;52.956;5.906;2024-02-26T09:54:15;1.10;;;0.88;;
29816;SDS011;16805;52.956;5.906;2024-02-26T09:57:02;3.17;;;0.80;;
29816;SDS011;16805;52.956;5.906;2024-02-26T10:00:08;0.70;;;0.70;;
29816;SDS011;16805;52.956;5.906;2024-02-26T10:02:58;2.28;;;1.23;;
29816;SDS011;16805;52.956;5.906;2024-02-26T10:12:04;2.40;;;0.95;;
29816;SDS011;16805;52.956;5.906;2024-02-26T10:15:03;1.65;;;1.20;;
29816;SDS011;16805;52.956;5.906;2024-02-26T10:17:35;2.03;;;0.88;;
29816;SDS011;16805;52.956;5.906;2024-02-26T10:20:29;2.88;;;1.15;;
29816;SDS011;16805;52.956;5.906;2024-02-26T10:23:05;0.85;;;0.63;;
29816;SDS011;16805;52.956;5.906;2024-02-26T10:25:52;2.35;;;0.93;;
29816;SDS011;16805;52.956;5.906;2024-02-26T10:28:51;0.43;;;0.43;;
29816;SDS011;16805;52.956;5.906;2024-02-26T10:38:27;0.90;;;0.60;;
29816;SDS011;16805;52.956;5.906;2024-02-26T10:44:10;2.63;;;1.00;;
29816;SDS011;16805;52.956;5.906;2024-02-26T10:46:42;1.13;;;0.93;;
29816;SDS011;16805;52.956;5.906;2024-02-26T10:49:57;2.67;;;1.50;;
29816;SDS011;16805;52.956;5.906;2024-02-26T10:53:12;1.20;;;1.00;;
29816;SDS011;16805;52.956;5.906;2024-02-26T10:59:43;0.90;;;0.80;;
29816;SDS011;16805;52.956;5.906;2024-02-26T11:06:30;1.67;;;0.60;;
29816;SDS011;16805;52.956;5.906;2024-02-26T11:09:59;4.80;;;0.75;;
29816;SDS011;16805;52.956;5.906;2024-02-26T11:12:49;1.63;;;0.85;;
29816;SDS011;16805;52.956;5.906;2024-02-26T11:18:27;1.02;;;0.68;;
29816;SDS011;16805;52.956;5.906;2024-02-26T11:27:10;3.05;;;0.75;;
29816;SDS011;16805;52.956;5.906;2024-02-26T11:30:28;1.27;;;0.88;;
29816;SDS011;16805;52.956;5.906;2024-02-26T11:33:35;3.95;;;0.90;;
29816;SDS011;16805;52.956;5.906;2024-02-26T11:36:17;1.52;;;1.00;;
29816;SDS011;16805;52.956;5.906;2024-02-26T11:39:13;0.70;;;0.70;;
29816;SDS011;16805;52.956;5.906;2024-02-26T11:42:08;1.42;;;1.05;;
29816;SDS011;16805;52.956;5.906;2024-02-26T11:44:47;6.15;;;0.70;;
29816;SDS011;16805;52.956;5.906;2024-02-26T11:47:26;2.90;;;0.80;;
29816;SDS011;16805;52.956;5.906;2024-02-26T11:49:55;0.40;;;0.40;;
29816;SDS011;16805;52.956;5.906;2024-02-26T11:52:21;0.70;;;0.52;;
29816;SDS011;16805;52.956;5.906;2024-02-26T11:54:53;3.38;;;1.00;;
29816;SDS011;16805;52.956;5.906;2024-02-26T11:57:39;1.33;;;0.73;;
29816;SDS011;16805;52.956;5.906;2024-02-26T12:00:17;2.15;;;1.13;;
29816;SDS011;16805;52.956;5.906;2024-02-26T12:02:49;1.13;;;0.90;;
29816;SDS011;16805;52.956;5.906;2024-02-26T12:05:24;5.65;;;1.33;;
29816;SDS011;16805;52.956;5.906;2024-02-26T12:07:53;1.15;;;0.85;;
29816;SDS011;16805;52.956;5.906;2024-02-26T12:10:39;1.15;;;0.93;;
29816;SDS011;16805;52.956;5.906;2024-02-26T12:13:12;1.63;;;1.00;;
29816;SDS011;16805;52.956;5.906;2024-02-26T12:19:02;3.95;;;1.48;;
29816;SDS011;16805;52.956;5.906;2024-02-26T12:21:37;3.00;;;1.67;;
29816;SDS011;16805;52.956;5.906;2024-02-26T12:24:15;2.75;;;1.30;;
29816;SDS011;16805;52.956;5.906;2024-02-26T12:26:43;3.78;;;2.05;;
29816;SDS011;16805;52.956;5.906;2024-02-26T12:29:15;1.63;;;1.00;;
29816;SDS011;16805;52.956;5.906;2024-02-26T12:31:53;3.85;;;1.63;;
29816;SDS011;16805;52.956;5.906;2024-02-26T12:34:18;5.15;;;3.15;;
29816;SDS011;16805;52.956;5.906;2024-02-26T12:36:47;3.20;;;2.35;;
29816;SDS011;16805;52.956;5.906;2024-02-26T12:39:14;3.50;;;2.13;;
29816;SDS011;16805;52.956;5.906;2024-02-26T12:41:52;2.65;;;1.73;;
29816;SDS011;16805;52.956;5.906;2024-02-26T12:44:29;2.67;;;1.52;;
29816;SDS011;16805;52.956;5.906;2024-02-26T12:47:06;4.07;;;2.03;;
29816;SDS011;16805;52.956;5.906;2024-02-26T12:49:42;4.78;;;1.60;;
29816;SDS011;16805;52.956;5.906;2024-02-26T12:52:14;1.77;;;1.10;;
29816;SDS011;16805;52.956;5.906;2024-02-26T12:54:56;3.95;;;2.28;;
29816;SDS011;16805;52.956;5.906;2024-02-26T13:00:46;1.77;;;1.38;;
29816;SDS011;16805;52.956;5.906;2024-02-26T13:03:19;6.25;;;2.20;;
29816;SDS011;16805;52.956;5.906;2024-02-26T13:05:57;4.35;;;2.42;;
29816;SDS011;16805;52.956;5.906;2024-02-26T13:08:36;2.00;;;1.45;;
29816;SDS011;16805;52.956;5.906;2024-02-26T13:11:11;2.30;;;1.83;;
29816;SDS011;16805;52.956;5.906;2024-02-26T13:13:51;6.38;;;1.70;;
29816;SDS011;16805;52.956;5.906;2024-02-26T13:16:23;2.25;;;1.27;;
29816;SDS011;16805;52.956;5.906;2024-02-26T13:19:18;3.13;;;1.67;;
29816;SDS011;16805;52.956;5.906;2024-02-26T13:21:50;5.68;;;1.95;;
29816;SDS011;16805;52.956;5.906;2024-02-26T13:25:00;2.45;;;2.15;;
29816;SDS011;16805;52.956;5.906;2024-02-26T13:28:14;4.35;;;2.38;;
29816;SDS011;16805;52.956;5.906;2024-02-26T13:31:06;3.58;;;2.08;;
29816;SDS011;16805;52.956;5.906;2024-02-26T13:33:37;3.15;;;1.77;;
29816;SDS011;16805;52.956;5.906;2024-02-26T13:38:52;3.75;;;0.95;;
29816;SDS011;16805;52.956;5.906;2024-02-26T13:41:25;4.30;;;2.13;;
29816;SDS011;16805;52.956;5.906;2024-02-26T13:43:55;2.60;;;1.73;;
29816;SDS011;16805;52.956;5.906;2024-02-26T13:46:46;3.35;;;1.52;;
29816;SDS011;16805;52.956;5.906;2024-02-26T13:49:38;2.47;;;1.55;;
29816;SDS011;16805;52.956;5.906;2024-02-26T13:52:20;2.10;;;1.27;;
29816;SDS011;16805;52.956;5.906;2024-02-26T13:54:55;2.92;;;2.22;;
29816;SDS011;16805;52.956;5.906;2024-02-26T13:57:24;4.57;;;1.95;;
29816;SDS011;16805;52.956;5.906;2024-02-26T14:00:27;3.25;;;2.25;;
29816;SDS011;16805;52.956;5.906;2024-02-26T14:03:13;3.33;;;2.38;;
29816;SDS011;16805;52.956;5.906;2024-02-26T14:05:42;6.07;;;1.67;;
29816;SDS011;16805;52.956;5.906;2024-02-26T14:08:16;4.13;;;2.08;;
29816;SDS011;16805;52.956;5.906;2024-02-26T14:10:42;5.22;;;2.42;;
29816;SDS011;16805;52.956;5.906;2024-02-26T14:13:11;4.93;;;2.70;;
29816;SDS011;16805;52.956;5.906;2024-02-26T14:15:42;3.72;;;1.17;;
29816;SDS011;16805;52.956;5.906;2024-02-26T14:18:08;5.28;;;2.10;;
29816;SDS011;16805;52.956;5.906;2024-02-26T14:20:48;2.08;;;1.88;;
29816;SDS011;16805;52.956;5.906;2024-02-26T14:23:31;3.30;;;1.50;;
29816;SDS011;16805;52.956;5.906;2024-02-26T14:26:06;6.05;;;1.95;;
29816;SDS011;16805;52.956;5.906;2024-02-26T14:28:38;2.45;;;1.55;;
29816;SDS011;16805;52.956;5.906;2024-02-26T14:31:11;1.40;;;1.30;;
29816;SDS011;16805;52.956;5.906;2024-02-26T14:33:40;3.45;;;1.60;;
29816;SDS011;16805;52.956;5.906;2024-02-26T14:36:08;6.87;;;2.70;;
29816;SDS011;16805;52.956;5.906;2024-02-26T14:38:41;2.95;;;1.55;;
29816;SDS011;16805;52.956;5.906;2024-02-26T14:41:29;2.05;;;1.45;;
29816;SDS011;16805;52.956;5.906;2024-02-26T14:43:58;4.22;;;2.50;;
29816;SDS011;16805;52.956;5.906;2024-02-26T14:46:26;5.70;;;2.00;;
29816;SDS011;16805;52.956;5.906;2024-02-26T14:49:04;3.92;;;2.78;;
29816;SDS011;16805;52.956;5.906;2024-02-26T14:51:46;5.05;;;2.30;;
29816;SDS011;16805;52.956;5.906;2024-02-26T14:54:21;2.83;;;1.70;;
29816;SDS011;16805;52.956;5.906;2024-02-26T14:56:57;5.35;;;2.72;;
29816;SDS011;16805;52.956;5.906;2024-02-26T14:59:26;1.55;;;1.27;;
29816;SDS011;16805;52.956;5.906;2024-02-26T15:01:53;2.88;;;1.60;;
29816;SDS011;16805;52.956;5.906;2024-02-26T15:04:26;2.60;;;1.98;;
29816;SDS011;16805;52.956;5.906;2024-02-26T15:10:18;3.80;;;1.92;;
29816;SDS011;16805;52.956;5.906;2024-02-26T16:29:41;2.47;;;1.23;;
29816;SDS011;16805;52.956;5.906;2024-02-26T16:32:22;2.63;;;1.33;;
29816;SDS011;16805;52.956;5.906;2024-02-26T16:34:48;2.03;;;1.30;;
29816;SDS011;16805;52.956;5.906;2024-02-26T16:37:17;1.67;;;1.05;;
29816;SDS011;16805;52.956;5.906;2024-02-26T16:40:13;1.65;;;1.23;;
29816;SDS011;16805;52.956;5.906;2024-02-26T16:42:41;2.13;;;1.50;;
29816;SDS011;16805;52.956;5.906;2024-02-26T16:45:29;3.35;;;0.80;;
29816;SDS011;16805;52.956;5.906;2024-02-26T16:47:55;2.10;;;0.90;;
29816;SDS011;16805;52.956;5.906;2024-02-26T16:50:44;3.35;;;1.20;;
29816;SDS011;16805;52.956;5.906;2024-02-26T16:53:15;5.95;;;1.10;;
29816;SDS011;16805;52.956;5.906;2024-02-26T16:55:44;2.90;;;0.98;;
29816;SDS011;16805;52.956;5.906;2024-02-26T16:58:23;2.75;;;1.05;;
29816;SDS011;16805;52.956;5.906;2024-02-26T17:00:51;1.45;;;1.17;;
29816;SDS011;16805;52.956;5.906;2024-02-26T17:03:26;0.93;;;0.68;;
29816;SDS011;16805;52.956;5.906;2024-02-26T17:05:52;1.50;;;0.80;;
29816;SDS011;16805;52.956;5.906;2024-02-26T17:08:41;0.88;;;0.70;;
29816;SDS011;16805;52.956;5.906;2024-02-26T17:11:13;5.60;;;1.08;;
29816;SDS011;16805;52.956;5.906;2024-02-26T17:16:39;2.28;;;0.70;;
29816;SDS011;16805;52.956;5.906;2024-02-26T17:19:23;3.65;;;1.00;;
29816;SDS011;16805;52.956;5.906;2024-02-26T17:25:46;1.90;;;1.00;;
29816;SDS011;16805;52.956;5.906;2024-02-26T17:38:12;1.42;;;0.80;;
29816;SDS011;16805;52.956;5.906;2024-02-26T17:41:25;2.60;;;1.15;;
29816;SDS011;16805;52.956;5.906;2024-02-26T17:48:16;3.50;;;1.13;;
29816;SDS011;16805;52.956;5.906;2024-02-26T18:04:22;2.65;;;1.40;;
29816;SDS011;16805;52.956;5.906;2024-02-26T18:17:48;1.63;;;1.10;;
29816;SDS011;16805;52.956;5.906;2024-02-26T18:24:20;2.17;;;1.50;;
29816;SDS011;16805;52.956;5.906;2024-02-26T18:30:07;7.07;;;2.10;;
29816;SDS011;16805;52.956;5.906;2024-02-26T18:47:01;2.67;;;1.20;;
29816;SDS011;16805;52.956;5.906;2024-02-26T18:50:32;2.15;;;1.05;;
29816;SDS011;16805;52.956;5.906;2024-02-26T18:54:04;1.95;;;1.10;;
29816;SDS011;16805;52.956;5.906;2024-02-26T18:57:12;2.92;;;1.75;;
29816;SDS011;16805;52.956;5.906;2024-02-26T19:10:19;2.13;;;0.90;;
29816;SDS011;16805;52.956;5.906;2024-02-26T19:26:35;2.20;;;1.10;;
29816;SDS011;16805;52.956;5.906;2024-02-26T19:33:13;1.15;;;0.77;;
29816;SDS011;16805;52.956;5.906;2024-02-26T20:07:52;1.80;;;1.13;;
29816;SDS011;16805;52.956;5.906;2024-02-26T20:28:21;2.67;;;1.40;;
29816;SDS011;16805;52.956;5.906;2024-02-26T20:41:21;2.38;;;1.67;;
29816;SDS011;16805;52.956;5.906;2024-02-26T20:48:11;2.65;;;1.77;;
29816;SDS011;16805;52.956;5.906;2024-02-26T21:01:48;1.45;;;1.20;;
29816;SDS011;16805;52.956;5.906;2024-02-26T21:05:31;4.97;;;1.50;;
29816;SDS011;16805;52.956;5.906;2024-02-26T22:43:11;2.00;;;1.08;;
29816;SDS011;16805;52.956;5.906;2024-02-26T23:07:15;1.17;;;0.93;;
29816;SDS011;16805;52.956;5.906;2024-02-26T23:13:49;2.40;;;1.58;;
29816;SDS011;16805;52.956;5.906;2024-02-26T23:20:38;0.85;;;0.65;;
29816;SDS011;16805;52.956;5.906;2024-02-26T23:23:44;0.95;;;0.50;;
29816;SDS011;16805;52.956;5.906;2024-02-26T23:34:05;0.70;;;0.60;;
29816;SDS011;16805;52.956;5.906;2024-02-26T23:40:28;2.53;;;0.70;;
29816;SDS011;16805;52.956;5.906;2024-02-26T23:49:57;4.50;;;0.70;;
29816;SDS011;16805;52.956;5.906;2024-02-26T23:53:27;1.95;;;0.73;;
